Main page
Satellite images 10-day forecastsClimateMarine weather Cyclones Lightning AirportsFAQ Newsletter About
Weather : Europe Africa North America South America Asia Australia-Oceania Others
Languages Contact

Podgorica, Montenegro

Podgorica Airport

latitude: 42-26N, longitude: 019-17E, elevation: 53 m


METAR: LYPG 021000Z 16004KT 9999 FEW040 35/17 Q1015 NOSIG
TAF: LYPG 020500Z 0206/0306 15007KT CAVOK TX38/0214Z TN23/0303Z

Time: 12:16 (10:16 UTC)

Current weather observation

The report was made 16 minutes ago, at 10:00 UTC
Wind 4 kt from the South/Southeast
Temperature 35°C
Humidity 34%
Pressure 1015 hPa
Visibility 10 km or more
Few clouds at a height of 4000 ft

Change units

Forecast

The report was made 5 hours and 16 minutes ago, at 05:00 UTC
Forecast valid from 02 at 06 UTC to 03 at 06 UTC
Wind 7 kt from the South/Southeast
Visibility 10 km or more
no clouds below 1500 m and no cumulonimbus
The information on this site is subject to a disclaimer
Weather : Europe Africa North America South America Asia Australia-Oceania Others
Satellite images 10-day forecastsClimateMarine weather Cyclones Lightning AirportsFAQ Languages Contact Newsletter About